Time;durP1;ratioP1;P1;durP2;ratioP2;P2;SDS_P1;SDS_P2;PMS_P1;PMS_P2;Temp;Humidity;BMP_temperature;BMP_pressure;BME280_temperature;BME280_humidity;BME280_pressure;Samples;Min_cycle;Max_cycle;Signal;HPM_P1;HPM_P2
2023/03/19 00:01:41;;;;;;;1999.90;999.90;;;11.10;99.90;;;;;;4995873;28;20080;-73
2023/03/19 00:04:07;;;;;;;1999.90;999.90;;;11.10;99.90;;;;;;4995776;28;20031;-72
2023/03/19 00:06:33;;;;;;;1999.90;999.90;;;11.10;99.90;;;;;;4995439;28;20030;-73
2023/03/19 00:08:59;;;;;;;1999.90;999.90;;;11.10;99.90;;;;;;5019847;28;20029;-72
2023/03/19 00:11:24;;;;;;;1999.90;999.90;;;11.10;99.90;;;;;;5035217;28;20053;-73
2023/03/19 00:13:50;;;;;;;1999.90;999.90;;;11.10;99.90;;;;;;5035094;28;20510;-73
2023/03/19 00:16:16;;;;;;;1999.90;999.90;;;11.00;99.90;;;;;;5034908;28;20060;-71
2023/03/19 00:18:41;;;;;;;1999.90;999.90;;;11.00;99.90;;;;;;5034857;28;20029;-72
2023/03/19 00:21:08;;;;;;;1999.90;999.90;;;11.10;99.90;;;;;;5032786;28;20030;-72
2023/03/19 00:23:35;;;;;;;1999.90;999.90;;;11.00;99.90;;;;;;5014232;28;20029;-74
2023/03/19 00:26:00;;;;;;;1999.90;999.90;;;11.10;99.90;;;;;;5014408;28;20014;-73
2023/03/19 00:28:26;;;;;;;1999.90;999.90;;;11.10;99.90;;;;;;5015109;28;20085;-74
2023/03/19 00:30:52;;;;;;;1999.90;999.90;;;11.00;99.90;;;;;;5014776;28;20018;-72
2023/03/19 00:33:19;;;;;;;1999.90;999.90;;;11.00;99.90;;;;;;5014954;28;20033;-72
2023/03/19 00:35:45;;;;;;;1999.90;999.90;;;11.00;99.90;;;;;;5015090;28;20497;-72
2023/03/19 00:38:11;;;;;;;1999.90;999.90;;;11.00;99.90;;;;;;5014752;28;20030;-71
2023/03/19 00:40:37;;;;;;;1999.90;999.90;;;11.10;99.90;;;;;;5020305;28;20036;-72
2023/03/19 00:43:03;;;;;;;1999.90;999.90;;;11.00;99.90;;;;;;5034282;28;20052;-74
2023/03/19 00:45:29;;;;;;;1999.90;999.90;;;11.00;99.90;;;;;;5031595;28;20033;-73
2023/03/19 00:47:56;;;;;;;1999.90;999.90;;;11.00;99.90;;;;;;5013079;28;20517;-72
2023/03/19 00:50:24;;;;;;;1999.90;999.90;;;11.10;99.90;;;;;;5014217;28;20438;-73
2023/03/19 00:52:51;;;;;;;1999.90;999.90;;;11.10;99.90;;;;;;5014220;28;20022;-72
2023/03/19 00:55:16;;;;;;;1999.90;999.90;;;11.10;99.90;;;;;;5014483;28;20432;-73
2023/03/19 00:57:42;;;;;;;1999.90;999.90;;;11.10;99.90;;;;;;4999151;28;20038;-71
2023/03/19 01:00:09;;;;;;;1999.90;999.90;;;11.10;99.90;;;;;;4995174;28;20034;-71
2023/03/19 01:02:35;;;;;;;1999.90;999.90;;;11.10;99.90;;;;;;4994890;28;20045;-72
2023/03/19 01:05:01;;;;;;;1999.90;999.90;;;11.10;99.90;;;;;;4994569;28;20500;-73
2023/03/19 01:07:26;;;;;;;1999.90;999.90;;;11.00;99.90;;;;;;4994354;28;20508;-72
2023/03/19 01:09:52;;;;;;;1999.90;999.90;;;11.00;99.90;;;;;;5032931;28;20022;-71
2023/03/19 01:12:18;;;;;;;1999.90;999.90;;;11.00;99.90;;;;;;5033804;28;20109;-73
2023/03/19 01:14:44;;;;;;;1999.90;999.90;;;11.00;99.90;;;;;;5033839;28;20047;-73
2023/03/19 01:17:10;;;;;;;1999.90;999.90;;;11.00;99.90;;;;;;5033230;28;20480;-73
2023/03/19 01:19:35;;;;;;;1999.90;999.90;;;11.00;99.90;;;;;;5033576;28;20021;-73
2023/03/19 01:22:03;;;;;;;1999.90;999.90;;;11.00;99.90;;;;;;5023253;28;20029;-72
2023/03/19 01:24:30;;;;;;;1999.90;999.90;;;10.90;99.90;;;;;;5013677;28;20489;-73
2023/03/19 01:26:55;;;;;;;1999.90;999.90;;;10.90;99.90;;;;;;5013618;28;20068;-71
2023/03/19 01:29:21;;;;;;;1999.90;999.90;;;10.90;99.90;;;;;;5014099;28;20022;-73
2023/03/19 01:31:48;;;;;;;1999.90;999.90;;;10.90;99.90;;;;;;5013702;28;20544;-73
2023/03/19 01:34:13;;;;;;;1999.90;999.90;;;10.90;99.90;;;;;;5012580;28;20022;-73
2023/03/19 01:36:39;;;;;;;1999.90;999.90;;;10.80;99.90;;;;;;5013387;28;20129;-73
2023/03/19 01:39:05;;;;;;;1999.90;999.90;;;10.80;99.90;;;;;;5013636;28;20571;-72
2023/03/19 01:41:31;;;;;;;1999.90;999.90;;;10.70;99.90;;;;;;5026432;28;20422;-73
2023/03/19 01:43:56;;;;;;;1999.90;999.90;;;10.70;99.90;;;;;;5033509;28;20033;-72
2023/03/19 01:46:35;;;;;;;1999.90;999.90;;;10.60;99.90;;;;;;5023552;28;20029;-71
2023/03/19 01:49:05;;;;;;;1999.90;999.90;;;10.60;99.90;;;;;;5013138;28;20050;-72
2023/03/19 01:51:38;;;;;;;1999.90;999.90;;;10.50;99.90;;;;;;5013275;28;20044;-71
2023/03/19 01:54:09;;;;;;;1999.90;999.90;;;10.50;99.90;;;;;;5013195;28;20486;-71
2023/03/19 01:56:38;;;;;;;1999.90;999.90;;;10.50;99.90;;;;;;5007749;28;20160;-71
2023/03/19 01:59:11;;;;;;;1999.90;999.90;;;10.40;99.90;;;;;;4993536;28;20034;-72
2023/03/19 02:01:44;;;;;;;1999.90;999.90;;;10.40;99.90;;;;;;4991692;28;20413;-73
2023/03/19 02:04:12;;;;;;;1999.90;999.90;;;10.40;99.90;;;;;;4993748;28;20042;-71
2023/03/19 02:06:39;;;;;;;1999.90;999.90;;;10.40;99.90;;;;;;4993298;28;20038;-74
2023/03/19 02:09:06;;;;;;;1999.90;999.90;;;10.30;99.90;;;;;;5019413;28;20071;-71
2023/03/19 02:11:32;;;;;;;1999.90;999.90;;;10.40;99.90;;;;;;5032691;28;20036;-71
2023/03/19 02:13:58;;;;;;;1999.90;999.90;;;10.30;99.90;;;;;;5032820;28;20107;-71
2023/03/19 02:16:24;;;;;;;1999.90;999.90;;;10.30;99.90;;;;;;5033090;28;20053;-71
2023/03/19 02:18:49;;;;;;;1999.90;999.90;;;10.30;99.90;;;;;;5032591;28;20396;-71
2023/03/19 02:21:17;;;;;;;1999.90;999.90;;;10.40;99.90;;;;;;5028929;28;20116;-74
2023/03/19 02:23:58;;;;;;;1999.90;999.90;;;10.40;99.90;;;;;;5012469;28;20033;-73
2023/03/19 02:26:27;;;;;;;1999.90;999.90;;;10.40;99.90;;;;;;5012879;28;20115;-73
2023/03/19 02:28:53;;;;;;;1999.90;999.90;;;10.50;99.90;;;;;;5012888;28;20032;-72
2023/03/19 02:31:20;;;;;;;1999.90;999.90;;;10.50;99.90;;;;;;5013142;28;20113;-73
2023/03/19 02:34:00;;;;;;;1999.90;999.90;;;10.60;99.90;;;;;;5012889;28;20428;-71
2023/03/19 02:36:33;;;;;;;1999.90;999.90;;;10.60;99.90;;;;;;5012830;28;20403;-71
2023/03/19 02:39:03;;;;;;;1999.90;999.90;;;10.60;99.90;;;;;;5012501;28;20064;-71
2023/03/19 02:41:30;;;;;;;1999.90;999.90;;;10.70;99.90;;;;;;5025371;28;20116;-72
2023/03/19 02:43:57;;;;;;;1999.90;999.90;;;10.70;99.90;;;;;;5032565;28;20113;-74
2023/03/19 02:46:22;;;;;;;1999.90;999.90;;;10.70;99.90;;;;;;5023076;28;20046;-72
2023/03/19 02:48:48;;;;;;;1999.90;999.90;;;10.70;99.90;;;;;;5012503;28;20069;-72
2023/03/19 02:51:14;;;;;;;1999.90;999.90;;;10.70;99.90;;;;;;5012737;28;20105;-72
2023/03/19 02:53:39;;;;;;;1999.90;999.90;;;10.70;99.90;;;;;;5012766;28;20738;-74
2023/03/19 02:56:05;;;;;;;1999.90;999.90;;;10.70;99.90;;;;;;5011105;28;20060;-72
2023/03/19 02:58:32;;;;;;;1999.90;999.90;;;10.70;99.90;;;;;;4993382;28;20059;-74
2023/03/19 03:00:58;;;;;;;1999.90;999.90;;;10.70;99.90;;;;;;4993115;28;20838;-72
2023/03/19 03:03:23;;;;;;;1999.90;999.90;;;10.70;99.90;;;;;;4993082;28;20034;-72
2023/03/19 03:05:49;;;;;;;1999.90;999.90;;;10.70;99.90;;;;;;4993041;28;20030;-72
2023/03/19 03:08:15;;;;;;;1999.90;999.90;;;10.70;99.90;;;;;;5005427;28;20539;-74
2023/03/19 03:10:40;;;;;;;1999.90;999.90;;;10.70;99.90;;;;;;5032376;28;20400;-74
2023/03/19 03:13:06;;;;;;;1999.90;999.90;;;10.70;99.90;;;;;;5033300;28;20244;-73
2023/03/19 03:15:31;;;;;;;1999.90;999.90;;;10.80;99.90;;;;;;5030780;28;20477;-74
2023/03/19 03:17:57;;;;;;;1999.90;999.90;;;10.70;99.90;;;;;;5016068;28;20045;-74
2023/03/19 03:20:23;;;;;;;1999.90;999.90;;;10.80;99.90;;;;;;5016264;28;20033;-72
2023/03/19 03:22:49;;;;;;;1999.90;999.90;;;10.80;99.90;;;;;;5015257;28;20076;-72
2023/03/19 03:25:15;;;;;;;1999.90;999.90;;;10.80;99.90;;;;;;5016121;28;20026;-72
2023/03/19 03:27:41;;;;;;;1999.90;999.90;;;10.80;99.90;;;;;;5015734;28;20037;-75
2023/03/19 03:30:09;;;;;;;1999.90;999.90;;;10.80;99.90;;;;;;5016258;28;20026;-75
2023/03/19 03:32:36;;;;;;;1999.90;999.90;;;10.80;99.90;;;;;;5016084;28;20026;-73
2023/03/19 03:35:02;;;;;;;1999.90;999.90;;;10.90;99.90;;;;;;5014585;28;20472;-72
2023/03/19 03:37:28;;;;;;;1999.90;999.90;;;10.90;99.90;;;;;;5015683;28;20033;-72
2023/03/19 03:39:54;;;;;;;1999.90;999.90;;;10.90;99.90;;;;;;5016017;28;20026;-73
2023/03/19 03:42:20;;;;;;;1999.90;999.90;;;11.00;99.90;;;;;;5035238;28;20031;-75
2023/03/19 03:44:46;;;;;;;1999.90;999.90;;;11.00;99.90;;;;;;5035274;28;20033;-74
2023/03/19 03:47:12;;;;;;;1999.90;999.90;;;10.90;99.90;;;;;;5018938;28;20042;-72
2023/03/19 03:49:37;;;;;;;1999.90;999.90;;;11.00;99.90;;;;;;5015532;28;20034;-75
2023/03/19 03:52:03;;;;;;;1999.90;999.90;;;11.00;99.90;;;;;;5015672;28;20104;-75
2023/03/19 03:54:29;;;;;;;1999.90;999.90;;;11.00;99.90;;;;;;5015592;28;20025;-73
2023/03/19 03:56:55;;;;;;;1999.90;999.90;;;11.00;99.90;;;;;;5007217;28;20023;-73
2023/03/19 03:59:20;;;;;;;1999.90;999.90;;;11.00;99.90;;;;;;4995642;28;20076;-72
2023/03/19 04:01:46;;;;;;;1999.90;999.90;;;11.10;99.90;;;;;;4995631;28;20049;-73
2023/03/19 04:04:12;;;;;;;1999.90;999.90;;;11.00;99.90;;;;;;4995907;28;20030;-74
2023/03/19 04:06:37;;;;;;;1999.90;999.90;;;11.10;99.90;;;;;;4995694;28;20049;-72
2023/03/19 04:09:04;;;;;;;1999.90;999.90;;;11.10;99.90;;;;;;5021203;28;20026;-74
2023/03/19 04:11:29;;;;;;;1999.90;999.90;;;11.10;99.90;;;;;;5035185;28;20497;-72
2023/03/19 04:13:56;;;;;;;1999.90;999.90;;;11.00;99.90;;;;;;5034685;28;20021;-72
2023/03/19 04:16:22;;;;;;;1999.90;999.90;;;11.00;99.90;;;;;;5034790;28;20021;-73
2023/03/19 04:18:48;;;;;;;1999.90;999.90;;;11.10;99.90;;;;;;5034241;28;20029;-73
2023/03/19 04:21:14;;;;;;;1999.90;999.90;;;11.10;99.90;;;;;;5032650;28;20022;-73
2023/03/19 04:23:40;;;;;;;1999.90;999.90;;;11.10;99.90;;;;;;5014364;28;20562;-74
2023/03/19 04:26:06;;;;;;;1999.90;999.90;;;11.10;99.90;;;;;;5014047;28;20033;-73
2023/03/19 04:28:32;;;;;;;1999.90;999.90;;;11.10;99.90;;;;;;5014764;28;20018;-73
2023/03/19 04:31:00;;;;;;;1999.90;999.90;;;11.10;99.90;;;;;;5014852;28;20033;-74
2023/03/19 04:33:25;;;;;;;1999.90;999.90;;;11.10;99.90;;;;;;5014896;28;20026;-74
2023/03/19 04:35:51;;;;;;;1999.90;999.90;;;11.10;99.90;;;;;;5014931;28;20022;-73
2023/03/19 04:38:17;;;;;;;1999.90;999.90;;;11.10;99.90;;;;;;5014847;28;20021;-74
2023/03/19 04:40:42;;;;;;;1999.90;999.90;;;11.10;99.90;;;;;;5020722;28;20100;-73
2023/03/19 04:43:08;;;;;;;1999.90;999.90;;;11.10;99.90;;;;;;5034471;28;20092;-73
2023/03/19 04:45:34;;;;;;;1999.90;999.90;;;11.10;99.90;;;;;;5031049;28;20018;-73
2023/03/19 04:48:00;;;;;;;1999.90;999.90;;;11.00;99.90;;;;;;5014146;28;20056;-73
2023/03/19 04:50:26;;;;;;;1999.90;999.90;;;11.00;99.90;;;;;;5014610;28;20110;-73
2023/03/19 04:52:52;;;;;;;1999.90;999.90;;;11.00;99.90;;;;;;5014240;28;20028;-73
2023/03/19 04:55:18;;;;;;;1999.90;999.90;;;11.00;99.90;;;;;;5014428;28;20460;-73
2023/03/19 04:57:43;;;;;;;1999.90;999.90;;;11.00;99.90;;;;;;4999578;28;20081;-73
2023/03/19 05:00:10;;;;;;;1999.90;999.90;;;11.00;99.90;;;;;;4994726;28;20088;-72
2023/03/19 05:02:36;;;;;;;1999.90;999.90;;;11.00;99.90;;;;;;4994960;28;20490;-73
2023/03/19 05:05:02;;;;;;;1999.90;999.90;;;11.00;99.90;;;;;;4994524;28;20057;-74
2023/03/19 05:07:27;;;;;;;1999.90;999.90;;;11.00;99.90;;;;;;4994826;28;20434;-72
2023/03/19 05:09:53;;;;;;;1999.90;999.90;;;11.00;99.90;;;;;;5033156;28;20083;-73
2023/03/19 05:12:19;;;;;;;1999.90;999.90;;;11.00;99.90;;;;;;5034005;28;20009;-74
2023/03/19 05:14:44;;;;;;;1999.90;999.90;;;11.00;99.90;;;;;;5034216;28;20029;-73
2023/03/19 05:17:10;;;;;;;1999.90;999.90;;;11.00;99.90;;;;;;5015997;28;20030;-74
2023/03/19 05:19:38;;;;;;;1999.90;999.90;;;11.00;99.90;;;;;;5013909;28;20113;-73
2023/03/19 05:22:03;;;;;;;1999.90;999.90;;;11.00;99.90;;;;;;5013884;28;20029;-73
2023/03/19 05:24:29;;;;;;;1999.90;999.90;;;11.00;99.90;;;;;;5013028;28;20029;-73
2023/03/19 05:26:55;;;;;;;1999.90;999.90;;;11.00;99.90;;;;;;5013970;28;20393;-73
2023/03/19 05:29:22;;;;;;;1999.90;999.90;;;11.00;99.90;;;;;;5013563;28;20025;-74
2023/03/19 05:31:48;;;;;;;1999.90;999.90;;;11.00;99.90;;;;;;5013934;28;20509;-73
2023/03/19 05:34:13;;;;;;;1999.90;999.90;;;11.00;99.90;;;;;;5013862;28;20093;-74
2023/03/19 05:36:39;;;;;;;1999.90;999.90;;;11.00;99.90;;;;;;5012170;28;20029;-74
2023/03/19 05:39:05;;;;;;;1999.90;999.90;;;11.00;99.90;;;;;;5013822;28;20029;-74
2023/03/19 05:41:31;;;;;;;1999.90;999.90;;;11.00;99.90;;;;;;5026259;28;20022;-72
2023/03/19 05:43:56;;;;;;;1999.90;999.90;;;11.00;99.90;;;;;;5033569;28;20417;-74
2023/03/19 05:46:23;;;;;;;1999.90;999.90;;;11.00;99.90;;;;;;5055557;28;20103;-74
2023/03/19 05:48:49;;;;;;;1999.90;999.90;;;11.00;99.90;;;;;;5013243;28;20046;-73
2023/03/19 05:51:14;;;;;;;1999.90;999.90;;;11.00;99.90;;;;;;5013567;28;20022;-73
2023/03/19 05:53:40;;;;;;;1999.90;999.90;;;11.00;99.90;;;;;;5013273;28;20135;-74
2023/03/19 05:56:06;;;;;;;1999.90;999.90;;;11.00;99.90;;;;;;5011687;28;20030;-73
2023/03/19 05:58:32;;;;;;;1999.90;999.90;;;11.00;99.90;;;;;;4993726;28;20026;-74
2023/03/19 06:00:58;;;;;;;1999.90;999.90;;;11.10;99.90;;;;;;4993738;28;20030;-73
2023/03/19 06:03:25;;;;;;;1999.90;999.90;;;11.10;99.90;;;;;;4993799;28;20117;-74
2023/03/19 06:05:51;;;;;;;1999.90;999.90;;;11.10;99.90;;;;;;5025283;28;20026;-72
2023/03/19 06:08:17;;;;;;;1999.90;999.90;;;11.10;99.90;;;;;;5006690;28;20104;-73
2023/03/19 06:10:43;;;;;;;1999.90;999.90;;;11.10;99.90;;;;;;5033042;28;20049;-74
2023/03/19 06:13:09;;;;;;;1999.90;999.90;;;11.10;99.90;;;;;;5033031;28;20021;-74
2023/03/19 06:15:35;;;;;;;1999.90;999.90;;;11.10;99.90;;;;;;5032925;28;20030;-72
2023/03/19 06:18:01;;;;;;;1999.90;999.90;;;11.10;99.90;;;;;;5033033;28;20392;-74
2023/03/19 06:20:26;;;;;;;1999.90;999.90;;;11.10;99.90;;;;;;5033038;28;20037;-73
2023/03/19 06:22:52;;;;;;;1999.90;999.90;;;11.10;99.90;;;;;;5017213;28;20134;-74
2023/03/19 06:25:17;;;;;;;1999.90;999.90;;;11.10;99.90;;;;;;5012212;28;20026;-74
2023/03/19 06:27:43;;;;;;;1999.90;999.90;;;11.10;99.90;;;;;;5012957;28;20018;-73
2023/03/19 06:30:09;;;;;;;1999.90;999.90;;;11.20;99.90;;;;;;5013147;28;20467;-74
2023/03/19 06:32:35;;;;;;;1999.90;999.90;;;11.20;99.90;;;;;;5012797;28;20374;-74
2023/03/19 06:35:01;;;;;;;1999.90;999.90;;;11.20;99.90;;;;;;5012926;28;20034;-73
2023/03/19 06:37:27;;;;;;;1999.90;999.90;;;11.20;99.90;;;;;;4993055;28;20034;-73
2023/03/19 06:39:56;;;;;;;1999.90;999.90;;;11.20;99.90;;;;;;4993209;28;20022;-73
2023/03/19 06:42:21;;;;;;;1999.90;999.90;;;11.20;99.90;;;;;;5012685;28;20026;-73
2023/03/19 06:44:47;;;;;;;1999.90;999.90;;;11.20;99.90;;;;;;5012639;28;20034;-73
2023/03/19 06:47:14;;;;;;;1999.90;999.90;;;11.20;99.90;;;;;;5012821;28;20038;-72
2023/03/19 06:49:40;;;;;;;1999.90;999.90;;;11.20;99.90;;;;;;5016173;28;20396;-74
2023/03/19 06:52:06;;;;;;;1999.90;999.90;;;11.30;99.90;;;;;;5016929;28;20073;-73
2023/03/19 06:54:32;;;;;;;1999.90;999.90;;;11.30;99.90;;;;;;5016954;28;20101;-73
2023/03/19 06:56:58;;;;;;;1999.90;999.90;;;11.30;99.90;;;;;;5039598;28;20061;-73
2023/03/19 06:59:24;;;;;;;1999.90;999.90;;;11.30;99.90;;;;;;4997132;28;20489;-73
2023/03/19 07:01:49;;;;;;;1999.90;999.90;;;11.30;99.90;;;;;;4996841;28;20038;-73
2023/03/19 07:04:15;;;;;;;1999.90;999.90;;;11.40;99.90;;;;;;4996980;28;20043;-73
2023/03/19 07:06:41;;;;;;;1999.90;999.90;;;11.40;99.90;;;;;;4996667;28;20039;-73
2023/03/19 07:09:06;;;;;;;1999.90;999.90;;;11.40;99.90;;;;;;5023029;28;20078;-73
2023/03/19 07:11:32;;;;;;;1999.90;999.90;;;11.40;99.90;;;;;;5036248;28;20021;-73
2023/03/19 07:13:58;;;;;;;1999.90;999.90;;;11.40;99.90;;;;;;5036517;28;20483;-73
2023/03/19 07:16:23;;;;;;;1999.90;999.90;;;11.40;99.90;;;;;;5036348;28;20504;-73
2023/03/19 07:18:49;;;;;;;1999.90;999.90;;;11.50;99.90;;;;;;5035377;28;20025;-73
2023/03/19 07:21:14;;;;;;;1999.90;999.90;;;11.50;99.90;;;;;;5033575;28;20032;-73
2023/03/19 07:23:40;;;;;;;1999.90;999.90;;;11.50;99.90;;;;;;5016122;28;20428;-72
2023/03/19 07:26:06;;;;;;;1999.90;999.90;;;11.60;99.90;;;;;;5015418;28;20026;-74
2023/03/19 07:28:31;;;;;;;1999.90;999.90;;;11.60;99.90;;;;;;5016444;28;20022;-73
2023/03/19 07:30:57;;;;;;;1999.90;999.90;;;11.60;99.90;;;;;;5016153;28;20033;-73
2023/03/19 07:33:23;;;;;;;1999.90;999.90;;;11.70;99.90;;;;;;5015977;28;20121;-75
2023/03/19 07:35:49;;;;;;;1999.90;999.90;;;11.70;99.90;;;;;;5016046;28;20029;-73
2023/03/19 07:38:15;;;;;;;1999.90;999.90;;;11.60;99.90;;;;;;5014850;28;20026;-73
2023/03/19 07:40:41;;;;;;;1999.90;999.90;;;11.60;99.90;;;;;;5021839;28;20017;-73
2023/03/19 07:43:06;;;;;;;1999.90;999.90;;;11.70;99.90;;;;;;5035300;28;20040;-73
2023/03/19 07:45:32;;;;;;;1999.90;999.90;;;11.70;99.90;;;;;;5032578;28;20111;-74
2023/03/19 07:48:02;;;;;;;1999.90;999.90;;;11.70;99.90;;;;;;5015965;28;20057;-74
2023/03/19 07:50:29;;;;;;;1999.90;999.90;;;11.60;99.90;;;;;;5016041;28;20022;-75
2023/03/19 07:52:55;;;;;;;1999.90;999.90;;;11.70;99.90;;;;;;5015547;28;20021;-73
2023/03/19 07:55:20;;;;;;;1999.90;999.90;;;11.60;99.90;;;;;;5015536;28;20026;-73
2023/03/19 07:57:46;;;;;;;1999.90;999.90;;;11.60;99.90;;;;;;5000045;28;20034;-73
2023/03/19 08:00:12;;;;;;;1999.90;999.90;;;11.60;99.90;;;;;;4994688;28;20018;-74
2023/03/19 08:02:38;;;;;;;1999.90;999.90;;;11.60;99.90;;;;;;4996063;28;20030;-73
2023/03/19 08:05:03;;;;;;;1999.90;999.90;;;11.60;99.90;;;;;;4995991;28;20037;-73
2023/03/19 08:07:30;;;;;;;1999.90;999.90;;;11.60;99.90;;;;;;4995626;28;20026;-74
2023/03/19 08:09:57;;;;;;;1999.90;999.90;;;11.60;99.90;;;;;;4995679;28;20097;-73
2023/03/19 08:12:23;;;;;;;1999.90;999.90;;;11.60;99.90;;;;;;4995651;28;20031;-73
2023/03/19 08:14:49;;;;;;;1999.90;999.90;;;11.50;99.90;;;;;;4995636;28;20101;-73
2023/03/19 08:17:15;;;;;;;1999.90;999.90;;;11.50;99.90;;;;;;4995573;28;20118;-73
2023/03/19 08:19:41;;;;;;;1999.90;999.90;;;11.50;99.90;;;;;;4995031;28;20081;-73
2023/03/19 08:22:06;;;;;;;1999.90;999.90;;;11.60;99.90;;;;;;5004816;28;20229;-73
2023/03/19 08:24:32;;;;;;;1999.90;999.90;;;11.50;99.90;;;;;;5014755;28;20034;-73
2023/03/19 08:26:58;;;;;;;1999.90;999.90;;;11.50;99.90;;;;;;5014436;28;20036;-73
2023/03/19 08:29:26;;;;;;;1999.90;999.90;;;11.50;99.90;;;;;;5014891;28;20397;-73
2023/03/19 08:31:52;;;;;;;1999.90;999.90;;;11.50;99.90;;;;;;5014992;28;20018;-74
2023/03/19 08:34:18;;;;;;;1999.90;999.90;;;11.50;99.90;;;;;;5015137;28;20033;-73
2023/03/19 08:36:43;;;;;;;1999.90;999.90;;;11.50;99.90;;;;;;5014769;28;20038;-75
2023/03/19 08:39:09;;;;;;;1999.90;999.90;;;11.50;99.90;;;;;;5014913;28;20018;-73
2023/03/19 08:41:35;;;;;;;1999.90;999.90;;;11.60;99.90;;;;;;5028191;28;20029;-73
2023/03/19 08:44:01;;;;;;;1999.90;999.90;;;11.70;99.90;;;;;;5034743;28;20029;-73
2023/03/19 08:46:28;;;;;;;1999.90;999.90;;;11.80;99.90;;;;;;5034524;28;20033;-73
2023/03/19 08:48:54;;;;;;;1999.90;999.90;;;11.90;99.90;;;;;;5034065;28;20419;-73
2023/03/19 08:51:20;;;;;;;1999.90;999.90;;;11.90;99.90;;;;;;5034480;28;20026;-73
2023/03/19 08:53:45;;;;;;;1999.90;999.90;;;11.80;99.90;;;;;;5032781;28;20113;-75
2023/03/19 08:56:11;;;;;;;1999.90;999.90;;;12.00;99.90;;;;;;5029599;28;20043;-73
2023/03/19 08:58:38;;;;;;;1999.90;999.90;;;12.20;99.90;;;;;;4994751;28;20030;-73
2023/03/19 09:01:09;;;;;;;1999.90;999.90;;;12.30;99.90;;;;;;4994588;28;20101;-73
2023/03/19 09:03:39;;;;;;;1999.90;999.90;;;12.40;99.90;;;;;;4994650;28;20050;-73
2023/03/19 09:06:07;;;;;;;1999.90;999.90;;;12.70;99.90;;;;;;4993413;28;20382;-73
2023/03/19 09:08:34;;;;;;;1999.90;999.90;;;12.80;99.90;;;;;;5011788;28;20052;-73
2023/03/19 09:11:00;;;;;;;1999.90;999.90;;;12.70;99.90;;;;;;5033855;28;20061;-73
2023/03/19 09:13:25;;;;;;;1999.90;999.90;;;12.60;99.90;;;;;;5034289;28;20044;-75
2023/03/19 09:15:51;;;;;;;1999.90;999.90;;;12.60;99.90;;;;;;5033698;28;20100;-75
2023/03/19 09:18:19;;;;;;;1999.90;999.90;;;12.70;99.90;;;;;;5033872;28;20044;-73
2023/03/19 09:20:46;;;;;;;1999.90;999.90;;;12.70;99.90;;;;;;5034255;28;20105;-75
2023/03/19 09:23:11;;;;;;;1999.90;999.90;;;12.60;99.90;;;;;;5015523;28;20396;-72
2023/03/19 09:25:37;;;;;;;1999.90;999.90;;;12.70;99.90;;;;;;5013039;28;20034;-73
2023/03/19 09:28:03;;;;;;;1999.90;999.90;;;13.00;99.90;;;;;;5013790;28;20022;-73
2023/03/19 09:30:28;;;;;;;1999.90;999.90;;;13.00;99.90;;;;;;5014045;28;20057;-73
2023/03/19 09:32:54;;;;;;;1999.90;999.90;;;13.00;99.90;;;;;;5014053;28;20028;-75
2023/03/19 09:35:20;;;;;;;1999.90;999.90;;;13.10;99.90;;;;;;5013810;28;20503;-75
2023/03/19 09:37:46;;;;;;;1999.90;999.90;;;13.20;99.90;;;;;;5013538;28;20029;-73
2023/03/19 09:40:32;;;;;;;1999.90;999.90;;;13.20;99.90;;;;;;5015737;28;20034;-73
2023/03/19 09:43:25;;;;;;;1999.90;999.90;;;13.30;99.90;;;;;;5033044;28;20033;-75
2023/03/19 09:45:51;;;;;;;1999.90;999.90;;;13.40;99.90;;;;;;5027608;28;20037;-75
2023/03/19 09:48:48;;;;;;;1999.90;999.90;;;13.30;99.90;;;;;;5013494;28;20050;-75
2023/03/19 09:51:19;;;;;;;1999.90;999.90;;;13.10;99.90;;;;;;5012194;28;20069;-75
2023/03/19 09:53:52;;;;;;;1999.90;999.90;;;13.30;99.90;;;;;;5013440;28;20069;-78
2023/03/19 09:56:18;;;;;;;1999.90;999.90;;;13.30;99.90;;;;;;5009978;28;20065;-76
2023/03/19 09:58:44;;;;;;;1999.90;999.90;;;13.40;99.90;;;;;;4993941;28;20026;-75
2023/03/19 10:01:39;;;;;;;1999.90;999.90;;;13.40;99.90;;;;;;4993765;28;20140;-78
2023/03/19 10:04:23;;;;;;;1999.90;999.90;;;13.10;99.90;;;;;;4994326;28;20038;-75
2023/03/19 10:06:55;;;;;;;1999.90;999.90;;;13.00;99.90;;;;;;4993483;28;20093;-76
2023/03/19 10:09:36;;;;;;;1999.90;999.90;;;13.40;99.90;;;;;;5055928;28;20378;-78
2023/03/19 10:12:19;;;;;;;1999.90;999.90;;;13.60;99.90;;;;;;5033229;28;20033;-76
2023/03/19 10:15:03;;;;;;;1999.90;999.90;;;13.60;99.90;;;;;;5032741;28;20018;-73
2023/03/19 10:17:33;;;;;;;1999.90;999.90;;;13.50;99.90;;;;;;5032388;28;20018;-73
2023/03/19 10:20:08;;;;;;;1999.90;999.90;;;13.30;99.90;;;;;;5033173;28;20041;-73
2023/03/19 10:23:09;;;;;;;1999.90;999.90;;;13.20;99.90;;;;;;5019260;28;20121;-76
2023/03/19 10:25:38;;;;;;;1999.90;999.90;;;13.30;99.90;;;;;;5011566;28;20771;-73
2023/03/19 10:28:16;;;;;;;1999.90;999.90;;;13.40;99.90;;;;;;5013211;28;20019;-76
2023/03/19 10:30:59;;;;;;;1999.90;999.90;;;13.50;99.90;;;;;;5013019;28;20022;-75
2023/03/19 10:33:30;;;;;;;;;;;13.20;99.90;;;;;;5013659;28;20393;-75
2023/03/19 10:36:08;;;;;;;1999.90;999.90;;;13.00;99.90;;;;;;5013152;28;20011;-76
2023/03/19 10:38:40;;;;;;;1999.90;999.90;;;13.40;99.90;;;;;;5012647;28;20037;-76
2023/03/19 10:41:36;;;;;;;1999.90;999.90;;;13.80;99.90;;;;;;5022095;28;20030;-73
2023/03/19 10:44:08;;;;;;;1999.90;999.90;;;14.10;99.90;;;;;;5032761;28;20029;-73
2023/03/19 10:46:38;;;;;;;1999.90;999.90;;;14.00;99.90;;;;;;5021705;28;20042;-73
2023/03/19 10:49:04;;;;;;;1999.90;999.90;;;14.10;99.90;;;;;;5011251;28;20778;-76
2023/03/19 10:51:30;;;;;;;1999.90;999.90;;;13.80;99.90;;;;;;5012686;28;20026;-72
2023/03/19 10:53:59;;;;;;;1999.90;999.90;;;14.00;99.90;;;;;;5012891;28;20022;-73
2023/03/19 10:56:30;;;;;;;1999.90;999.90;;;14.20;99.90;;;;;;5008626;28;20495;-73
2023/03/19 10:59:02;;;;;;;1999.90;999.90;;;14.60;99.90;;;;;;4993415;28;20150;-73
2023/03/19 11:01:33;;;;;;;1999.90;999.90;;;14.60;99.90;;;;;;4993280;28;20035;-76
2023/03/19 11:04:02;;;;;;;1999.90;999.90;;;14.60;99.90;;;;;;4992303;28;20031;-76
2023/03/19 11:06:36;;;;;;;1999.90;999.90;;;14.60;99.90;;;;;;4993163;28;20033;-73
2023/03/19 11:09:07;;;;;;;1999.90;999.90;;;14.40;99.90;;;;;;5018050;28;20034;-73
2023/03/19 11:11:46;;;;;;;1999.90;999.90;;;14.60;99.90;;;;;;5032270;28;20022;-73
2023/03/19 11:14:18;;;;;;;1999.90;999.90;;;14.70;99.90;;;;;;5032688;28;20025;-73
2023/03/19 11:16:53;;;;;;;1999.90;999.90;;;14.50;99.90;;;;;;5032351;28;20040;-76
2023/03/19 11:19:22;;;;;;;1999.90;999.90;;;14.30;99.90;;;;;;5032422;28;20435;-76
2023/03/19 11:22:11;;;;;;;1999.90;999.90;;;14.00;99.90;;;;;;5025840;28;20022;-76
2023/03/19 11:24:41;;;;;;;1999.90;999.90;;;14.30;99.90;;;;;;5012785;28;20061;-76
2023/03/19 11:27:08;;;;;;;1999.90;999.90;;;14.10;99.90;;;;;;5011998;28;20482;-76
2023/03/19 11:29:41;;;;;;;1999.90;999.90;;;14.60;99.90;;;;;;5012255;28;20489;-76
2023/03/19 11:32:36;;;;;;;1999.90;999.90;;;14.70;99.90;;;;;;5012769;28;20026;-76
2023/03/19 11:35:16;;;;;;;1999.90;999.90;;;14.50;99.90;;;;;;5014583;28;20041;-73
2023/03/19 11:38:03;;;;;;;1999.90;999.90;;;14.80;99.90;;;;;;5015797;28;20378;-73
2023/03/19 11:41:00;;;;;;;1999.90;999.90;;;14.60;99.90;;;;;;5020158;28;20106;-73
2023/03/19 11:43:39;;;;;;;1999.90;999.90;;;14.40;99.90;;;;;;5035556;28;20021;-76
2023/03/19 11:46:07;;;;;;;1999.90;999.90;;;14.30;99.90;;;;;;5028183;28;20469;-73
2023/03/19 11:48:48;;;;;;;1999.90;999.90;;;14.30;99.90;;;;;;5015646;28;20453;-73
2023/03/19 11:51:40;;;;;;;1999.90;999.90;;;14.70;99.90;;;;;;5015772;28;20069;-73
2023/03/19 11:54:17;;;;;;;1999.90;999.90;;;14.40;99.90;;;;;;5014540;28;20026;-76
2023/03/19 11:57:08;;;;;;;1999.90;999.90;;;14.30;99.90;;;;;;5008858;28;20073;-73
2023/03/19 11:59:58;;;;;;;1999.90;999.90;;;14.90;99.90;;;;;;4995896;28;20039;-76
2023/03/19 12:02:29;;;;;;;1999.90;999.90;;;15.00;99.90;;;;;;4996014;28;20109;-73
2023/03/19 12:05:16;;;;;;;1999.90;999.90;;;14.40;99.90;;;;;;4995633;28;20070;-73